Time;durP1;ratioP1;P1;durP2;ratioP2;P2;SDS_P1;SDS_P2;PMS_P1;PMS_P2;Temp;Humidity;BMP_temperature;BMP_pressure;BME280_temperature;BME280_humidity;BME280_pressure;Samples;Min_cycle;Max_cycle;Signal;HPM_P1;HPM_P2
2023/07/29 00:00:43;;;;;;;17.90;10.70;;;17.50;99.90;;;;;;5133412;27;20047;-55
2023/07/29 00:03:09;;;;;;;15.73;9.05;;;17.40;99.90;;;;;;5113395;27;20118;-52
2023/07/29 00:05:36;;;;;;;14.15;10.23;;;17.70;99.90;;;;;;5134184;27;20412;-53
2023/07/29 00:08:02;;;;;;;15.30;9.93;;;17.60;99.90;;;;;;5133442;27;20515;-54
2023/07/29 00:10:30;;;;;;;14.45;10.07;;;17.60;99.90;;;;;;5133467;27;20047;-54
2023/07/29 00:12:56;;;;;;;15.98;11.18;;;17.70;99.90;;;;;;5130987;27;20526;-53
2023/07/29 00:15:22;;;;;;;13.75;10.63;;;17.40;99.90;;;;;;5132165;27;20134;-52
2023/07/29 00:17:47;;;;;;;15.27;10.23;;;17.80;99.90;;;;;;5132079;27;21429;-54
2023/07/29 00:20:13;;;;;;;13.35;9.35;;;17.60;99.90;;;;;;5132763;27;20077;-54
2023/07/29 00:22:39;;;;;;;14.05;10.60;;;17.70;99.90;;;;;;5133330;27;20408;-53
2023/07/29 00:25:05;;;;;;;14.95;10.63;;;17.60;99.90;;;;;;5133306;27;20113;-55
2023/07/29 00:27:30;;;;;;;15.30;10.88;;;17.70;99.90;;;;;;5132857;27;20043;-54
2023/07/29 00:29:57;;;;;;;13.43;10.85;;;17.70;99.90;;;;;;5134636;27;20103;-53
2023/07/29 00:32:22;;;;;;;12.57;10.93;;;17.60;99.90;;;;;;5131830;27;20470;-54
2023/07/29 00:34:48;;;;;;;16.80;11.13;;;17.70;99.90;;;;;;5132458;27;20034;-52
2023/07/29 00:37:14;;;;;;;12.30;10.55;;;17.70;99.90;;;;;;5131691;27;20524;-55
2023/07/29 00:39:40;;;;;;;14.73;10.73;;;17.70;99.90;;;;;;5133298;27;20039;-52
2023/07/29 00:42:06;;;;;;;16.85;11.02;;;17.70;99.90;;;;;;5131933;27;20065;-53
2023/07/29 00:44:32;;;;;;;15.05;10.43;;;17.60;99.90;;;;;;5131912;27;20366;-53
2023/07/29 00:47:00;;;;;;;12.88;10.23;;;17.60;99.90;;;;;;5131413;27;20718;-55
2023/07/29 00:49:26;;;;;;;12.50;10.20;;;17.70;99.90;;;;;;5131861;27;20422;-54
2023/07/29 00:51:52;;;;;;;18.67;11.65;;;17.80;99.90;;;;;;5130974;27;20031;-54
2023/07/29 00:54:18;;;;;;;13.85;10.90;;;17.60;99.90;;;;;;5131855;27;20097;-53
2023/07/29 00:56:43;;;;;;;14.63;11.75;;;17.80;99.90;;;;;;5131501;27;20047;-53
2023/07/29 00:59:09;;;;;;;13.85;10.50;;;17.70;99.90;;;;;;5132289;27;20567;-53
2023/07/29 01:01:35;;;;;;;15.40;11.68;;;17.50;99.90;;;;;;5131010;27;20047;-53
2023/07/29 01:04:01;;;;;;;13.80;11.13;;;17.70;99.90;;;;;;5112230;27;20076;-54
2023/07/29 01:07:02;;;;;;;14.05;11.38;;;17.50;99.90;;;;;;5132069;27;20050;-53
2023/07/29 01:10:02;;;;;;;15.05;11.18;;;17.50;99.90;;;;;;5132919;27;20276;-54
2023/07/29 01:12:37;;;;;;;15.77;10.48;;;17.50;99.90;;;;;;5120822;27;20350;-54
2023/07/29 01:15:13;;;;;;;17.60;11.20;;;17.60;99.90;;;;;;5132078;27;20058;-55
2023/07/29 01:17:54;;;;;;;16.17;11.00;;;17.40;99.90;;;;;;5132309;27;20414;-54
2023/07/29 01:20:21;;;;;;;16.10;11.10;;;17.50;99.90;;;;;;5110627;27;20038;-54
2023/07/29 01:22:48;;;;;;;12.68;10.45;;;17.40;99.90;;;;;;5133433;27;20035;-51
2023/07/29 01:25:13;;;;;;;13.93;10.80;;;17.20;99.90;;;;;;5137094;27;20085;-54
2023/07/29 01:27:42;;;;;;;13.50;11.20;;;17.30;99.90;;;;;;5118004;27;20117;-54
2023/07/29 01:30:08;;;;;;;16.00;11.63;;;17.20;99.90;;;;;;5135305;27;20046;-53
2023/07/29 01:33:10;;;;;;;17.00;11.88;;;17.50;99.90;;;;;;5135385;27;20065;-54
2023/07/29 01:35:50;;;;;;;15.13;11.15;;;17.30;99.90;;;;;;5093862;27;20058;-54
2023/07/29 01:38:33;;;;;;;14.07;10.65;;;17.30;99.90;;;;;;5135723;27;20440;-55
2023/07/29 01:41:01;;;;;;;16.70;12.13;;;17.10;99.90;;;;;;5136371;27;20103;-54
2023/07/29 01:43:28;;;;;;;16.48;11.75;;;16.80;99.90;;;;;;5136755;27;20039;-54
2023/07/29 01:45:54;;;;;;;16.75;11.90;;;17.00;99.90;;;;;;5136312;27;20534;-51
2023/07/29 01:48:20;;;;;;;19.55;12.55;;;16.90;99.90;;;;;;5116802;27;20049;-55
2023/07/29 01:50:46;;;;;;;19.85;12.00;;;16.90;99.90;;;;;;5134873;27;20055;-54
2023/07/29 01:53:12;;;;;;;14.88;12.05;;;16.80;99.90;;;;;;5135371;27;20085;-54
2023/07/29 01:55:39;;;;;;;19.23;12.93;;;16.80;99.90;;;;;;5134943;27;20551;-54
2023/07/29 01:58:05;;;;;;;16.80;11.77;;;16.80;99.90;;;;;;5134753;27;20042;-53
2023/07/29 02:00:30;;;;;;;16.15;12.38;;;16.90;99.90;;;;;;5134040;27;20503;-54
2023/07/29 02:02:56;;;;;;;15.20;12.57;;;16.80;99.90;;;;;;5115495;27;20067;-54
2023/07/29 02:05:22;;;;;;;19.45;11.70;;;16.80;99.90;;;;;;5135254;27;20049;-55
2023/07/29 02:07:48;;;;;;;15.35;12.90;;;16.50;99.90;;;;;;5113122;27;20045;-53
2023/07/29 02:10:14;;;;;;;16.33;11.63;;;16.80;99.90;;;;;;5134778;27;20543;-54
2023/07/29 02:12:39;;;;;;;16.50;12.25;;;16.70;99.90;;;;;;5134442;27;20043;-55
2023/07/29 02:15:06;;;;;;;17.55;12.00;;;16.80;99.90;;;;;;5135210;27;20418;-53
2023/07/29 02:17:31;;;;;;;16.42;12.07;;;16.80;99.90;;;;;;5136027;27;20038;-54
2023/07/29 02:19:57;;;;;;;18.98;11.73;;;16.60;99.90;;;;;;5132913;27;20547;-54
2023/07/29 02:22:23;;;;;;;17.52;11.43;;;16.70;99.90;;;;;;5134056;27;20042;-54
2023/07/29 02:24:49;;;;;;;17.33;12.48;;;16.70;99.90;;;;;;5133635;27;21155;-55
2023/07/29 02:27:14;;;;;;;16.35;10.82;;;16.80;99.90;;;;;;5135062;27;20045;-53
2023/07/29 02:29:40;;;;;;;15.43;12.43;;;16.70;99.90;;;;;;5133707;27;20043;-54
2023/07/29 02:32:06;;;;;;;17.15;12.02;;;16.70;99.90;;;;;;5133869;27;20323;-55
2023/07/29 02:34:32;;;;;;;14.88;10.63;;;16.60;99.90;;;;;;5134554;27;20087;-54
2023/07/29 02:36:57;;;;;;;16.65;11.68;;;16.60;99.90;;;;;;5134146;27;20114;-53
2023/07/29 02:39:23;;;;;;;15.20;11.55;;;16.80;99.90;;;;;;5114713;27;20074;-54
2023/07/29 02:41:49;;;;;;;14.95;11.48;;;16.80;99.90;;;;;;5133079;27;20038;-53
2023/07/29 02:44:15;;;;;;;14.10;11.35;;;16.80;99.90;;;;;;5135215;27;20059;-54
2023/07/29 02:46:41;;;;;;;16.80;11.50;;;16.80;99.90;;;;;;5136111;27;20121;-53
2023/07/29 02:49:07;;;;;;;17.08;11.07;;;16.30;99.90;;;;;;5115027;27;20034;-54
2023/07/29 02:51:33;;;;;;;16.40;10.82;;;16.80;99.90;;;;;;5135369;27;20083;-54
2023/07/29 02:53:59;;;;;;;14.00;10.35;;;16.40;99.90;;;;;;5100549;27;20575;-54
2023/07/29 02:56:24;;;;;;;15.45;10.57;;;16.60;99.90;;;;;;5135644;27;20051;-55
2023/07/29 02:58:53;;;;;;;16.92;10.63;;;16.50;99.90;;;;;;5133306;27;20087;-54
2023/07/29 03:01:19;;;;;;;23.05;11.50;;;16.60;99.90;;;;;;5135143;27;20039;-54
2023/07/29 03:03:44;;;;;;;15.30;10.18;;;16.40;99.90;;;;;;5134787;27;20135;-54
2023/07/29 03:06:14;;;;;;;16.75;9.80;;;16.50;99.90;;;;;;5136176;27;20058;-54
2023/07/29 03:08:39;;;;;;;14.07;10.50;;;16.50;99.90;;;;;;5135285;27;20045;-55
2023/07/29 03:11:07;;;;;;;14.02;10.43;;;16.50;99.90;;;;;;5133476;27;20319;-53
2023/07/29 03:13:33;;;;;;;12.85;10.00;;;16.40;99.90;;;;;;5132994;27;20418;-54
2023/07/29 03:16:12;;;;;;;13.57;9.23;;;16.40;99.90;;;;;;5132957;27;20051;-54
2023/07/29 03:18:38;;;;;;;15.00;10.40;;;16.40;99.90;;;;;;5132147;27;20038;-54
2023/07/29 03:21:04;;;;;;;15.90;10.05;;;16.40;99.90;;;;;;5133829;27;20073;-55
2023/07/29 03:23:30;;;;;;;14.02;10.38;;;16.30;99.90;;;;;;5133466;27;20477;-53
2023/07/29 03:25:58;;;;;;;17.30;9.77;;;16.40;99.90;;;;;;5132626;27;20046;-54
2023/07/29 03:28:29;;;;;;;15.38;10.18;;;16.20;99.90;;;;;;5114406;27;20039;-53
2023/07/29 03:30:56;;;;;;;16.67;10.18;;;16.30;99.90;;;;;;5133817;27;20042;-53
2023/07/29 03:33:22;;;;;;;15.13;9.88;;;16.10;99.90;;;;;;5132372;27;20042;-54
2023/07/29 03:35:48;;;;;;;14.43;9.07;;;16.30;99.90;;;;;;5114687;27;20073;-54
2023/07/29 03:38:15;;;;;;;17.67;10.18;;;16.30;99.90;;;;;;5133354;27;20051;-54
2023/07/29 03:40:41;;;;;;;15.13;10.05;;;16.30;99.90;;;;;;5134379;27;20047;-53
2023/07/29 03:43:07;;;;;;;14.43;9.70;;;16.20;99.90;;;;;;5132193;27;20080;-53
2023/07/29 03:45:34;;;;;;;15.65;9.07;;;16.00;99.90;;;;;;5132121;27;20069;-54
2023/07/29 03:48:00;;;;;;;19.90;9.40;;;16.10;99.90;;;;;;5132462;27;20456;-55
2023/07/29 03:50:27;;;;;;;14.93;9.05;;;16.10;99.90;;;;;;5133010;27;20046;-51
2023/07/29 03:52:52;;;;;;;16.08;9.15;;;16.10;99.90;;;;;;5131947;27;20357;-54
2023/07/29 03:55:18;;;;;;;13.13;8.75;;;16.30;99.90;;;;;;5133190;27;20046;-55
2023/07/29 03:57:44;;;;;;;14.65;9.05;;;16.00;99.90;;;;;;5133306;27;20038;-53
2023/07/29 04:00:10;;;;;;;16.42;9.20;;;16.10;99.90;;;;;;5114365;27;20042;-53
2023/07/29 04:02:39;;;;;;;16.45;8.90;;;16.20;99.90;;;;;;5132539;27;20423;-53
2023/07/29 04:05:08;;;;;;;20.23;8.82;;;16.00;99.90;;;;;;5131937;27;20103;-52
2023/07/29 04:07:34;;;;;;;13.07;8.88;;;16.10;99.90;;;;;;5131847;27;20511;-54
2023/07/29 04:10:01;;;;;;;19.55;8.15;;;16.10;99.90;;;;;;5130128;27;20046;-55
2023/07/29 04:12:27;;;;;;;12.73;8.45;;;16.10;99.90;;;;;;5133861;27;20046;-53
2023/07/29 04:14:52;;;;;;;15.13;8.23;;;16.00;99.90;;;;;;5132407;27;20522;-53
2023/07/29 04:17:18;;;;;;;12.23;8.15;;;15.90;99.90;;;;;;5132597;27;20068;-53
2023/07/29 04:19:44;;;;;;;16.08;8.32;;;16.20;99.90;;;;;;5132582;27;20031;-54
2023/07/29 04:22:09;;;;;;;14.80;8.60;;;16.10;99.90;;;;;;5133132;27;20592;-52
2023/07/29 04:24:35;;;;;;;13.07;8.23;;;15.90;99.90;;;;;;5131711;27;20042;-55
2023/07/29 04:27:01;;;;;;;13.30;7.47;;;16.00;99.90;;;;;;5132807;27;20034;-53
2023/07/29 04:29:27;;;;;;;12.30;7.28;;;16.10;99.90;;;;;;5132543;27;20130;-51
2023/07/29 04:31:53;;;;;;;15.70;7.85;;;16.20;99.90;;;;;;5132805;27;20487;-54
2023/07/29 04:34:19;;;;;;;13.07;7.85;;;16.00;99.90;;;;;;5132429;27;20433;-53
2023/07/29 04:36:48;;;;;;;13.77;7.85;;;16.20;99.90;;;;;;5131791;27;20060;-50
2023/07/29 04:39:14;;;;;;;13.93;8.15;;;16.00;99.90;;;;;;5113297;27;20047;-55
2023/07/29 04:41:40;;;;;;;12.82;7.82;;;16.10;99.90;;;;;;5134196;27;20065;-53
2023/07/29 04:44:05;;;;;;;13.70;8.23;;;16.10;99.90;;;;;;5131263;27;20589;-53
2023/07/29 04:46:31;;;;;;;11.70;7.32;;;16.30;99.90;;;;;;5131621;27;20034;-52
2023/07/29 04:48:57;;;;;;;12.98;7.63;;;16.30;99.90;;;;;;5131328;27;20396;-54
2023/07/29 04:51:23;;;;;;;12.38;7.03;;;16.20;99.90;;;;;;5131140;27;20480;-54
2023/07/29 04:53:50;;;;;;;10.40;7.05;;;16.10;99.90;;;;;;5130506;27;20043;-52
2023/07/29 04:56:15;;;;;;;17.40;7.30;;;16.20;99.90;;;;;;5130961;27;20078;-55
2023/07/29 04:58:41;;;;;;;13.40;6.43;;;16.30;99.90;;;;;;5134673;27;20043;-54
2023/07/29 05:01:07;;;;;;;11.68;6.10;;;16.60;99.90;;;;;;5114367;27;21109;-54
2023/07/29 05:03:32;;;;;;;11.80;5.88;;;16.40;99.90;;;;;;5118711;27;20385;-55
2023/07/29 05:05:59;;;;;;;11.90;6.18;;;16.50;99.90;;;;;;5139148;27;20530;-51
2023/07/29 05:08:26;;;;;;;9.80;5.95;;;16.30;99.90;;;;;;5139500;27;20102;-55
2023/07/29 05:10:52;;;;;;;9.63;5.35;;;16.30;99.90;;;;;;5102789;27;20046;-53
2023/07/29 05:13:18;;;;;;;11.02;4.95;;;16.40;99.90;;;;;;5137972;27;20395;-54
2023/07/29 05:15:45;;;;;;;9.23;5.55;;;16.30;99.90;;;;;;5116320;27;20851;-53
2023/07/29 05:18:11;;;;;;;9.85;5.35;;;16.60;99.90;;;;;;5139394;27;20121;-53
2023/07/29 05:20:37;;;;;;;12.25;5.68;;;16.40;99.90;;;;;;5139055;27;20121;-51
2023/07/29 05:23:02;;;;;;;10.60;5.32;;;16.60;99.90;;;;;;5138492;27;20095;-55
2023/07/29 05:25:29;;;;;;;8.38;5.03;;;16.50;99.90;;;;;;5119987;27;20295;-51
2023/07/29 05:27:54;;;;;;;9.60;4.68;;;16.70;99.90;;;;;;5138587;27;20066;-50
2023/07/29 05:30:20;;;;;;;12.52;5.47;;;16.70;99.90;;;;;;5138362;27;20126;-54
2023/07/29 05:32:46;;;;;;;8.40;4.43;;;16.60;99.90;;;;;;5139098;27;20034;-54
2023/07/29 05:35:12;;;;;;;11.75;4.80;;;16.50;99.90;;;;;;5139032;27;20100;-51
2023/07/29 05:37:41;;;;;;;10.27;4.72;;;16.70;99.90;;;;;;5139710;27;20043;-54
2023/07/29 05:40:08;;;;;;;9.70;4.60;;;16.80;99.90;;;;;;5140287;27;20039;-54
2023/07/29 05:42:34;;;;;;;12.20;4.72;;;16.60;99.90;;;;;;5138653;27;20068;-55
2023/07/29 05:45:00;;;;;;;8.60;4.22;;;16.60;99.90;;;;;;5138366;27;20077;-54
2023/07/29 05:47:26;;;;;;;8.02;4.07;;;16.70;99.90;;;;;;5120148;27;20037;-54
2023/07/29 05:49:52;;;;;;;8.77;4.22;;;16.70;99.90;;;;;;5139933;27;20083;-53
2023/07/29 05:52:18;;;;;;;8.23;4.00;;;16.60;99.90;;;;;;5116203;27;20069;-52
2023/07/29 05:54:43;;;;;;;8.82;4.13;;;16.80;99.90;;;;;;5137501;27;20586;-53
2023/07/29 05:57:11;;;;;;;8.77;3.83;;;16.90;99.90;;;;;;5138094;27;20083;-53
2023/07/29 05:59:36;;;;;;;8.55;4.53;;;16.80;99.90;;;;;;5139266;27;20111;-55
2023/07/29 06:02:02;;;;;;;9.75;4.32;;;16.70;99.90;;;;;;5137470;27;20491;-52
2023/07/29 06:04:28;;;;;;;8.13;4.20;;;16.80;99.90;;;;;;5136859;27;20050;-54
2023/07/29 06:06:55;;;;;;;11.18;4.20;;;17.00;99.90;;;;;;5139371;27;20038;-52
2023/07/29 06:09:21;;;;;;;10.18;3.97;;;16.90;99.90;;;;;;5119682;27;20526;-53
2023/07/29 06:11:47;;;;;;;8.55;4.30;;;16.90;99.90;;;;;;5133307;27;20059;-53
2023/07/29 06:14:13;;;;;;;7.95;3.88;;;16.90;99.90;;;;;;5134504;27;20165;-54
2023/07/29 06:16:39;;;;;;;7.78;3.88;;;17.20;99.90;;;;;;5133804;27;20472;-55
2023/07/29 06:19:05;;;;;;;10.95;4.03;;;17.00;99.90;;;;;;5134711;27;20043;-55
2023/07/29 06:21:30;;;;;;;7.38;3.88;;;17.20;99.90;;;;;;5133554;27;20057;-53
2023/07/29 06:23:56;;;;;;;7.97;3.65;;;17.40;99.90;;;;;;5133387;27;20060;-52
2023/07/29 06:26:22;;;;;;;12.38;3.97;;;17.50;99.90;;;;;;5132268;27;20088;-54
2023/07/29 06:28:48;;;;;;;9.88;3.92;;;17.70;99.90;;;;;;5117440;27;20160;-56
2023/07/29 06:31:14;;;;;;;9.63;3.60;;;17.70;99.90;;;;;;5134470;27;20035;-56
2023/07/29 06:33:40;;;;;;;10.13;4.00;;;17.80;99.90;;;;;;5134399;27;20043;-56
2023/07/29 06:36:06;;;;;;;7.82;3.90;;;18.00;99.90;;;;;;5135666;27;20070;-56
2023/07/29 06:38:31;;;;;;;8.75;4.30;;;17.80;99.90;;;;;;5135188;27;20034;-56
2023/07/29 06:40:57;;;;;;;9.02;4.47;;;17.90;99.90;;;;;;5134458;27;20050;-55
2023/07/29 06:43:23;;;;;;;7.60;3.88;;;17.80;99.90;;;;;;5134019;27;20130;-55
2023/07/29 06:45:49;;;;;;;8.77;4.50;;;18.20;99.90;;;;;;5133058;27;20123;-56
2023/07/29 06:48:14;;;;;;;7.38;3.83;;;18.10;99.90;;;;;;5134947;27;20106;-56
2023/07/29 06:50:40;;;;;;;8.95;4.10;;;18.10;99.90;;;;;;5135791;27;20621;-56
2023/07/29 06:53:06;;;;;;;7.88;4.00;;;18.20;99.90;;;;;;5134854;27;20046;-56
2023/07/29 06:55:32;;;;;;;10.18;4.82;;;18.20;99.90;;;;;;5135424;27;20451;-56
2023/07/29 06:57:57;;;;;;;11.43;3.97;;;18.10;99.90;;;;;;5135043;27;20034;-55
2023/07/29 07:00:23;;;;;;;11.40;4.45;;;18.50;99.90;;;;;;5134110;27;20154;-53
2023/07/29 07:02:49;;;;;;;11.50;3.90;;;18.50;99.90;;;;;;5135224;27;20071;-55
2023/07/29 07:05:15;;;;;;;9.90;3.70;;;18.60;99.90;;;;;;5117550;27;20039;-55
2023/07/29 07:07:40;;;;;;;8.63;3.80;;;18.60;99.90;;;;;;5135038;27;20516;-55
2023/07/29 07:10:06;;;;;;;10.05;3.63;;;18.90;99.90;;;;;;5133284;27;20053;-55
2023/07/29 07:12:32;;;;;;;15.77;4.00;;;18.80;99.90;;;;;;5132533;27;20061;-54
2023/07/29 07:14:58;;;;;;;9.23;4.22;;;18.90;99.90;;;;;;5134698;27;20380;-54
2023/07/29 07:17:23;;;;;;;8.35;4.35;;;18.10;99.90;;;;;;5134673;27;20037;-53
2023/07/29 07:19:49;;;;;;;9.13;4.05;;;18.80;99.90;;;;;;5133451;27;20038;-54
2023/07/29 07:22:16;;;;;;;11.82;4.25;;;18.50;99.90;;;;;;5133613;27;20054;-53
2023/07/29 07:24:42;;;;;;;13.25;4.35;;;18.50;99.90;;;;;;5132367;27;20046;-56
2023/07/29 07:27:07;;;;;;;10.85;4.28;;;18.50;99.90;;;;;;5132546;27;20031;-54
2023/07/29 07:29:33;;;;;;;10.85;4.45;;;18.70;99.90;;;;;;5132445;27;20042;-52
2023/07/29 07:31:59;;;;;;;11.65;3.95;;;18.90;99.90;;;;;;5116002;27;20125;-54
2023/07/29 07:34:25;;;;;;;11.55;3.33;;;19.10;99.90;;;;;;5114076;27;20370;-54
2023/07/29 07:36:51;;;;;;;12.93;3.92;;;19.20;99.90;;;;;;5136616;27;20062;-55
2023/07/29 07:39:16;;;;;;;11.05;3.88;;;19.20;99.90;;;;;;5132681;27;20491;-53
2023/07/29 07:41:42;;;;;;;11.35;3.67;;;19.20;99.90;;;;;;5134647;27;20145;-54
2023/07/29 07:44:08;;;;;;;11.32;4.03;;;19.30;99.90;;;;;;5133259;27;20045;-54
2023/07/29 07:46:34;;;;;;;9.32;3.63;;;19.30;99.90;;;;;;5134452;27;20046;-54
2023/07/29 07:49:00;;;;;;;9.63;4.03;;;19.30;99.90;;;;;;5134002;27;20041;-55
2023/07/29 07:51:26;;;;;;;13.60;3.90;;;19.20;99.90;;;;;;5133745;27;20515;-54
2023/07/29 07:53:51;;;;;;;7.35;3.40;;;19.80;99.90;;;;;;5134110;27;20503;-55
2023/07/29 07:56:17;;;;;;;10.93;3.22;;;19.90;99.90;;;;;;5133973;27;20169;-56
2023/07/29 07:58:43;;;;;;;8.32;3.58;;;20.60;99.90;;;;;;5134520;27;20050;-55
2023/07/29 08:01:09;;;;;;;7.68;3.28;;;20.90;99.90;;;;;;5133258;27;20042;-55
2023/07/29 08:03:35;;;;;;;10.27;3.72;;;21.10;99.90;;;;;;5133696;27;20075;-56
2023/07/29 08:06:02;;;;;;;9.65;3.33;;;21.10;99.90;;;;;;5135759;27;20057;-54
2023/07/29 08:08:28;;;;;;;7.97;3.08;;;20.80;99.90;;;;;;5134116;27;20031;-54
2023/07/29 08:10:54;;;;;;;8.75;3.05;;;20.70;99.90;;;;;;5116332;27;20039;-55
2023/07/29 08:13:21;;;;;;;9.93;3.05;;;20.40;99.90;;;;;;5115901;27;20122;-55
2023/07/29 08:15:48;;;;;;;6.10;2.38;;;20.20;99.90;;;;;;5134188;27;20034;-55
2023/07/29 08:18:15;;;;;;;8.77;2.60;;;20.20;99.90;;;;;;5133468;27;20038;-54
2023/07/29 08:20:40;;;;;;;8.57;2.38;;;20.20;99.90;;;;;;5134595;27;20046;-54
2023/07/29 08:23:06;;;;;;;7.32;3.13;;;20.10;99.90;;;;;;5134730;27;20049;-55
2023/07/29 08:25:32;;;;;;;9.68;2.67;;;20.10;99.90;;;;;;5135574;27;20551;-55
2023/07/29 08:27:57;;;;;;;7.60;2.30;;;20.10;99.90;;;;;;5134466;27;20091;-55
2023/07/29 08:30:23;;;;;;;6.55;2.30;;;20.20;99.90;;;;;;5114183;27;20367;-55
2023/07/29 08:32:50;;;;;;;6.72;2.20;;;20.40;99.90;;;;;;5135070;27;20103;-54
2023/07/29 08:35:15;;;;;;;8.85;2.50;;;20.40;99.90;;;;;;5135432;27;20045;-53
2023/07/29 08:37:41;;;;;;;6.05;2.33;;;20.60;99.90;;;;;;5134152;27;20042;-54
2023/07/29 08:40:07;;;;;;;9.02;2.25;;;20.50;99.90;;;;;;5133116;27;20068;-54
2023/07/29 08:42:34;;;;;;;7.15;2.83;;;20.40;99.90;;;;;;5132719;27;20049;-55
2023/07/29 08:45:07;;;;;;;6.45;2.10;;;20.20;99.90;;;;;;5133245;27;20049;-55
2023/07/29 08:47:33;;;;;;;10.75;2.45;;;20.40;99.90;;;;;;5131917;27;20047;-55
2023/07/29 08:50:01;;;;;;;5.55;2.30;;;20.40;99.90;;;;;;5131328;27;20042;-53
2023/07/29 08:52:27;;;;;;;4.32;1.80;;;20.10;99.90;;;;;;5133388;27;20099;-54
2023/07/29 08:54:53;;;;;;;7.47;2.20;;;20.10;99.90;;;;;;5113648;27;20418;-55
2023/07/29 08:57:20;;;;;;;5.40;2.00;;;20.20;99.90;;;;;;5130177;27;20081;-53
2023/07/29 08:59:46;;;;;;;8.23;2.03;;;20.50;99.90;;;;;;5130748;27;20471;-55
2023/07/29 09:02:12;;;;;;;6.10;1.90;;;20.80;99.90;;;;;;5130524;27;20130;-55
2023/07/29 09:04:37;;;;;;;6.88;2.17;;;20.60;99.90;;;;;;5130538;27;20473;-52
2023/07/29 09:07:06;;;;;;;6.97;1.95;;;20.50;99.90;;;;;;5132091;27;20589;-55
2023/07/29 09:09:32;;;;;;;5.90;1.80;;;21.70;99.90;;;;;;5111961;27;20435;-54
2023/07/29 09:11:58;;;;;;;6.45;2.05;;;20.50;99.90;;;;;;5130515;27;20126;-55
2023/07/29 09:14:24;;;;;;;7.32;1.70;;;21.10;99.90;;;;;;5129408;27;20157;-54
2023/07/29 09:16:50;;;;;;;6.03;1.60;;;21.50;99.90;;;;;;5131006;27;20035;-53
2023/07/29 09:19:16;;;;;;;7.65;1.60;;;21.60;99.90;;;;;;5129277;27;20043;-54
2023/07/29 09:21:42;;;;;;;7.38;2.13;;;21.50;99.90;;;;;;5132259;27;20157;-56
2023/07/29 09:24:09;;;;;;;6.93;1.95;;;20.80;99.90;;;;;;5132024;27;20094;-57
2023/07/29 09:26:35;;;;;;;5.55;1.75;;;21.80;99.90;;;;;;5131033;27;20066;-56
2023/07/29 09:29:01;;;;;;;8.27;3.13;;;21.40;99.90;;;;;;5131251;27;20632;-55
2023/07/29 09:31:28;;;;;;;7.40;2.10;;;21.40;99.90;;;;;;5130205;27;20091;-54
2023/07/29 09:33:59;;;;;;;5.45;1.70;;;21.40;99.90;;;;;;5129910;27;20901;-55
2023/07/29 09:36:26;;;;;;;6.90;2.00;;;21.30;99.90;;;;;;5133632;27;20031;-55
2023/07/29 09:38:56;;;;;;;5.93;1.58;;;21.40;99.90;;;;;;5132707;27;20035;-55
2023/07/29 09:41:23;;;;;;;5.50;2.17;;;21.20;99.90;;;;;;5132122;27;20070;-53
2023/07/29 09:43:58;;;;;;;7.45;1.90;;;21.20;99.90;;;;;;5130492;27;20209;-59
2023/07/29 09:46:31;;;;;;;6.05;1.67;;;21.00;99.90;;;;;;5131493;27;20057;-58
2023/07/29 09:48:57;;;;;;;7.80;2.15;;;21.30;99.90;;;;;;5134672;27;20464;-59
2023/07/29 09:51:23;;;;;;;6.25;1.70;;;21.40;99.90;;;;;;5133130;27;20046;-61
2023/07/29 09:53:54;;;;;;;5.50;1.77;;;21.60;99.90;;;;;;5133791;27;20301;-59
2023/07/29 09:56:26;;;;;;;6.85;1.92;;;21.40;99.90;;;;;;5116861;27;20424;-59
2023/07/29 09:58:51;;;;;;;5.85;2.05;;;21.40;99.90;;;;;;5134045;27;20057;-60
2023/07/29 10:01:18;;;;;;;10.68;2.03;;;21.20;99.90;;;;;;5134917;27;20042;-59
2023/07/29 10:03:45;;;;;;;5.60;1.80;;;21.20;99.90;;;;;;5134113;27;20042;-59
2023/07/29 10:06:11;;;;;;;7.70;1.95;;;21.30;99.90;;;;;;5136995;27;20190;-59
2023/07/29 10:08:39;;;;;;;3.78;1.55;;;21.60;99.90;;;;;;5133859;27;20130;-60
2023/07/29 10:11:09;;;;;;;6.88;1.73;;;21.30;99.90;;;;;;5116151;27;20125;-59
2023/07/29 10:13:35;;;;;;;4.80;1.30;;;21.40;99.90;;;;;;5134247;27;20046;-59
2023/07/29 10:16:02;;;;;;;3.85;1.20;;;21.80;99.90;;;;;;5134287;27;20057;-59
2023/07/29 10:18:32;;;;;;;6.25;1.83;;;21.90;99.90;;;;;;5134876;27;20481;-59
2023/07/29 10:21:00;;;;;;;6.90;1.65;;;22.20;99.90;;;;;;5134785;27;20046;-59
2023/07/29 10:23:27;;;;;;;10.23;2.03;;;22.60;99.90;;;;;;5133894;27;21022;-59
2023/07/29 10:26:05;;;;;;;7.78;2.15;;;22.50;99.90;;;;;;5134175;27;20054;-58
2023/07/29 10:28:32;;;;;;;7.35;1.75;;;22.30;99.90;;;;;;5133226;27;20407;-60
2023/07/29 10:30:58;;;;;;;4.20;1.40;;;22.80;99.90;;;;;;5135233;27;20051;-59
2023/07/29 10:33:24;;;;;;;5.00;1.58;;;23.20;99.90;;;;;;5134443;27;20027;-59
2023/07/29 10:35:51;;;;;;;5.30;1.48;;;23.20;99.90;;;;;;5135385;27;20078;-60
2023/07/29 10:38:19;;;;;;;4.25;1.38;;;22.90;99.90;;;;;;5136329;27;20053;-58
2023/07/29 10:41:01;;;;;;;5.15;1.90;;;22.40;99.90;;;;;;5115345;27;20129;-58
2023/07/29 10:43:32;;;;;;;4.30;1.45;;;22.00;99.90;;;;;;5133271;27;20034;-58
2023/07/29 10:46:21;;;;;;;6.63;1.73;;;21.70;99.90;;;;;;5133768;27;20503;-59
2023/07/29 10:48:54;;;;;;;6.05;1.73;;;21.50;99.90;;;;;;5133713;27;20091;-59
2023/07/29 10:51:33;;;;;;;8.23;2.42;;;21.20;99.90;;;;;;5135132;27;20571;-59
2023/07/29 10:54:03;;;;;;;5.07;1.50;;;21.20;99.90;;;;;;5134926;27;20047;-58
2023/07/29 10:56:34;;;;;;;5.10;1.73;;;20.90;99.90;;;;;;5134322;27;20082;-58
2023/07/29 10:59:20;;;;;;;7.30;1.85;;;20.70;99.90;;;;;;5116485;27;20702;-58
2023/07/29 11:01:59;;;;;;;8.43;2.03;;;20.50;99.90;;;;;;5134834;27;20075;-58
2023/07/29 11:04:33;;;;;;;7.40;1.90;;;20.30;99.90;;;;;;5134899;27;20505;-58
2023/07/29 11:07:07;;;;;;;4.35;1.40;;;19.90;99.90;;;;;;5136738;27;20051;-60
2023/07/29 11:09:51;;;;;;;6.40;1.65;;;19.60;99.90;;;;;;5135735;27;20038;-59
2023/07/29 11:12:50;;;;;;;14.85;2.70;;;19.70;99.90;;;;;;5134707;27;20410;-59
2023/07/29 11:15:20;;;;;;;8.48;2.22;;;19.50;99.90;;;;;;5133726;27;20046;-60
2023/07/29 11:17:50;;;;;;;5.63;1.83;;;20.10;99.90;;;;;;5133531;27;20046;-60
2023/07/29 11:20:17;;;;;;;5.28;1.45;;;20.30;99.90;;;;;;5133927;27;20039;-60
2023/07/29 11:22:44;;;;;;;6.25;1.95;;;20.50;99.90;;;;;;5134801;27;20129;-61
2023/07/29 11:25:14;;;;;;;10.60;2.55;;;20.80;99.90;;;;;;5134802;27;20503;-60
2023/07/29 11:27:40;;;;;;;6.20;2.33;;;21.10;99.90;;;;;;5133395;27;20666;-61
2023/07/29 11:30:08;;;;;;;8.00;1.92;;;21.10;99.90;;;;;;5132863;27;20042;-59
2023/07/29 11:32:36;;;;;;;5.22;1.88;;;21.40;99.90;;;;;;5133763;27;20044;-60
2023/07/29 11:35:03;;;;;;;5.55;1.77;;;21.60;99.90;;;;;;5133690;27;20058;-60
2023/07/29 11:37:29;;;;;;;8.85;2.53;;;21.40;99.90;;;;;;5135033;27;20150;-61
2023/07/29 11:39:55;;;;;;;6.05;2.00;;;21.10;99.90;;;;;;5132649;27;20593;-60
2023/07/29 11:42:21;;;;;;;8.45;2.42;;;20.90;99.90;;;;;;5131420;27;20047;-64
2023/07/29 11:44:46;;;;;;;7.13;2.45;;;20.90;99.90;;;;;;5131535;27;20598;-61
2023/07/29 11:47:13;;;;;;;5.50;2.10;;;20.70;99.90;;;;;;5131927;27;20491;-60
2023/07/29 11:49:40;;;;;;;7.18;2.10;;;21.00;99.90;;;;;;5130560;27;20066;-61
2023/07/29 11:52:10;;;;;;;8.85;2.50;;;21.00;99.90;;;;;;5131341;27;20521;-62
2023/07/29 11:54:39;;;;;;;5.85;2.33;;;20.80;99.90;;;;;;5130469;27;20046;-61
2023/07/29 11:57:08;;;;;;;7.10;2.75;;;21.00;99.90;;;;;;5133102;27;20126;-61
2023/07/29 11:59:35;;;;;;;6.97;2.75;;;20.60;99.90;;;;;;5133042;27;20121;-60
2023/07/29 12:02:07;;;;;;;5.72;2.35;;;20.90;99.90;;;;;;5132575;27;20050;-60
2023/07/29 12:04:34;;;;;;;5.85;2.05;;;23.00;99.90;;;;;;5131044;27;20042;-61
2023/07/29 12:07:00;;;;;;;6.88;2.30;;;20.80;99.90;;;;;;5113172;27;20411;-61
2023/07/29 12:09:27;;;;;;;6.95;1.98;;;20.80;99.90;;;;;;5127862;27;20057;-60
2023/07/29 12:11:53;;;;;;;6.28;1.90;;;20.70;99.90;;;;;;5131866;27;20058;-60
2023/07/29 12:14:19;;;;;;;7.28;2.00;;;20.50;99.90;;;;;;5132068;27;20107;-60
2023/07/29 12:16:47;;;;;;;7.75;2.08;;;20.40;99.90;;;;;;5132050;27;20769;-60
2023/07/29 12:19:14;;;;;;;4.40;1.80;;;20.40;99.90;;;;;;5129785;27;20070;-59
2023/07/29 12:21:43;;;;;;;5.50;1.98;;;20.40;99.90;;;;;;5131775;27;20038;-61
2023/07/29 12:24:09;;;;;;;7.28;2.47;;;20.20;99.90;;;;;;5133127;27;20074;-59
2023/07/29 12:26:36;;;;;;;7.07;2.30;;;20.40;99.90;;;;;;5131932;27;20487;-60
2023/07/29 12:29:15;;;;;;;6.70;2.08;;;20.60;99.90;;;;;;5113825;27;20039;-59
2023/07/29 12:31:41;;;;;;;7.00;2.33;;;20.90;99.90;;;;;;5132101;27;20061;-60
2023/07/29 12:34:07;;;;;;;8.55;2.30;;;21.00;99.90;;;;;;5132056;27;20546;-59
2023/07/29 12:37:02;;;;;;;4.63;1.67;;;21.30;99.90;;;;;;5131148;27;21084;-59
2023/07/29 12:39:29;;;;;;;6.60;1.90;;;21.40;99.90;;;;;;5128921;27;20130;-60